Have a Safe July 4th! 

Flight Track Log - Related Links

Times and Time Zones

All times are in EDT time to prevent confusion due to time zone crossing. See the N465TP flight status page for this flight to view local times or setup timezone preferences in your user account.

Time Position Orientation Groundspeed Altitude Reporting Facility
EDT Latitude Longitude Course Direction KTS MPH feet Rate Location/Type
Fri 03:42:28 PM 45.4681 -111.7897 329° Northwest 157 181 11,600  Level Salt Lake Center
Fri 03:42:49 PM 45.4839 -111.8031 329° Northwest 161 185 12,000 1,161 Climbing Salt Lake Center
Fri 03:43:30 PM 45.5100 -111.8244 330° Northwest 167 192 12,800 1,180 Climbing Salt Lake Center
Fri 03:43:50 PM 45.5242 -111.8342 334° Northwest 168 193 13,200 1,258 Climbing Salt Lake Center
Fri 03:44:32 PM 45.5517 -111.8592 328° Northwest 169 194 14,100 1,180 Climbing Salt Lake Center
Fri 03:44:51 PM 45.5656 -111.8708 330° Northwest 172 198 14,400 1,238 Climbing Salt Lake Center
Fri 03:45:35 PM 45.5961 -111.8956 330° Northwest 169 194 15,400 1,279 Climbing Salt Lake Center
Fri 03:45:52 PM 45.6064 -111.9047 328° Northwest 169 194 15,700 1,161 Climbing Salt Lake Center
Fri 03:46:37 PM 45.6375 -111.9294 331° Northwest 169 194 16,600 1,100 Climbing Salt Lake Center
Fri 03:46:52 PM 45.6489 -111.9378 333° Northwest 169 194 16,800 968 Climbing Salt Lake Center
Fri 03:47:39 PM 45.6806 -111.9647 329° Northwest 170 196 17,600 1,082 Climbing Salt Lake Center
Fri 03:47:53 PM 45.6925 -111.9736 333° Northwest 172 198 17,900 774 Climbing Salt Lake Center
Fri 03:48:41 PM 45.7256 -112.0014 330° Northwest 177 204 18,400 787 Climbing Salt Lake Center
Fri 03:48:54 PM 45.7358 -112.0094 331° Northwest 180 207 18,700 1,065 Climbing Salt Lake Center
Fri 03:49:43 PM 45.7717 -112.0400 329° Northwest 185 213 19,500 1,100 Climbing Salt Lake Center
Fri 03:49:54 PM 45.7825 -112.0503 327° Northwest 190 219 19,800 1,258 Climbing Salt Lake Center
Fri 03:50:45 PM 45.8219 -112.0811 331° Northwest 188 216 20,800 1,082 Climbing Salt Lake Center
Fri 03:50:55 PM 45.8303 -112.0872 333° Northwest 190 219 20,900 1,065 Climbing Salt Lake Center
Fri 03:51:47 PM 45.8686 -112.1200 329° Northwest 189 217 21,900 1,105 Climbing Salt Lake Center
Fri 03:52:49 PM 45.9153 -112.1586 330° Northwest 190 219 23,000 919 Climbing Salt Lake Center
Fri 03:53:51 PM 45.9617 -112.1983 329° Northwest 190 219 23,800 480 Climbing Salt Lake Center
Fri 03:54:54 PM 46.0150 -112.2414 331° Northwest 211 243 24,000 94 Climbing Salt Lake Center
Fri 03:55:58 PM 46.0783 -112.2914 331° Northwest 244 281 24,000  Level Salt Lake Center
Fri 03:56:58 PM 46.1386 -112.3450 328° Northwest 244 281 24,000  Level Salt Lake Center
Fri 03:58:00 PM 46.1975 -112.3983 328° Northwest 246 283 24,000  Level Salt Lake Center
Fri 03:59:02 PM 46.2572 -112.4475 330° Northwest 244 281 24,000 -50 Level Salt Lake Center
Fri 04:00:01 PM 46.3194 -112.4972 331° Northwest 244 281 23,900 -48 Descending Salt Lake Center
Fri 04:01:06 PM 46.3742 -112.5689 318° Northwest 245 282 23,900 50 Level Salt Lake Center
Fri 04:02:02 PM 46.4278 -112.6206 326° Northwest 242 278 24,000  Climbing Salt Lake Center
Fri 04:03:03 PM 46.4822 -112.6683 329° Northwest 242 278 23,900 -50 Descending Salt Lake Center
Fri 04:04:03 PM 46.5431 -112.7161 332° Northwest 246 283 23,900  Level Salt Lake Center
Fri 04:04:13 PM 46.5481 -112.7172 351° North 249 287 23,900 90 Level Salt Lake Center
Fri 04:05:10 PM 46.6150 -112.7747 329° Northwest 250 288 24,000  Climbing Salt Lake Center
Fri 04:06:11 PM 46.6717 -112.8244 329° Northwest 251 289 23,900 -47 Descending Salt Lake Center
Fri 04:07:19 PM 46.7403 -112.8800 331° Northwest 249 287 23,900  Level Salt Lake Center
Fri 04:08:21 PM 46.8006 -112.9314 330° Northwest 249 287 23,900  Level Salt Lake Center
Fri 04:09:23 PM 46.8600 -112.9825 330° Northwest 249 287 23,900  Level Salt Lake Center
Fri 04:10:25 PM 46.9203 -113.0339 330° Northwest 250 288 23,900  Level Salt Lake Center
Fri 04:11:27 PM 46.9789 -113.0853 329° Northwest 250 288 23,900  Level Salt Lake Center
Fri 04:12:29 PM 47.0508 -113.1447 331° Northwest 249 287 23,900  Level Salt Lake Center
Fri 04:13:32 PM 47.1097 -113.1956 330° Northwest 249 287 23,900  Level Salt Lake Center
Fri 04:14:34 PM 47.1697 -113.2467 330° Northwest 248 285 23,900  Level Salt Lake Center
Fri 04:15:36 PM 47.2278 -113.2986 329° Northwest 248 285 23,900 -48 Level Salt Lake Center
Fri 04:16:38 PM 47.2911 -113.3378 337° Northwest 248 285 23,800 -871 Descending Salt Lake Center
Fri 04:17:40 PM 47.3569 -113.4111 323° Northwest 246 283 22,100 -1,355 Descending Salt Lake Center
Fri 04:18:42 PM 47.4117 -113.4792 320° Northwest 257 296 21,000 -968 Descending Salt Lake Center
Fri 04:19:44 PM 47.4683 -113.5414 323° Northwest 257 296 20,100 -823 Descending Salt Lake Center
Fri 04:20:46 PM 47.5225 -113.6044 322° Northwest 253 291 19,300 -774 Descending Salt Lake Center
Fri 04:21:48 PM 47.5756 -113.6683 321° Northwest 251 289 18,500 -720 Descending Salt Lake Center
Fri 04:22:51 PM 47.6317 -113.7181 329° Northwest 242 278 17,800 -864 Descending Salt Lake Center
Fri 04:23:53 PM 47.7092 -113.7503 344° North 242 278 16,700 -919 Descending Salt Lake Center
Fri 04:24:55 PM 47.7631 -113.8089 324° Northwest 242 278 15,900 -1,065 Descending Salt Lake Center
Fri 04:25:57 PM 47.8186 -113.8536 332° Northwest 236 272 14,500 -1,452 Descending Salt Lake Center
Fri 04:26:59 PM 47.8731 -113.8969 332° Northwest 228 262 12,900 -1,452 Descending Salt Lake Center
Fri 04:28:01 PM 47.9264 -113.9403 331° Northwest 227 261 11,500 -1,258 Descending Salt Lake Center
Fri 04:29:03 PM 47.9897 -113.9922 331° Northwest 225 259 10,300 -871 Descending Salt Lake Center
Fri 04:30:05 PM 48.0397 -114.0333 331° Northwest 215 247 9,700 -677 Descending Salt Lake Center
Fri 04:31:07 PM 48.0908 -114.0744 332° Northwest 214 246 8,900 -912 Descending Salt Lake Center
Fri 04:32:10 PM 48.1386 -114.1156 330° Northwest 208 239 7,800 -1,056 Descending Salt Lake Center
Fri 04:33:12 PM 48.1867 -114.1547 331° Northwest 204 235 6,700 -1,306 Descending Salt Lake Center
Fri 04:34:14 PM 48.2350 -114.2122 322° Northwest 195 224 5,100 -1,355 Descending Salt Lake Center
Fri 04:35:16 PM 48.2606 -114.2681 305° West 177 204 3,900 -919 Descending Salt Lake Center
Fri 04:36:18 PM 48.2903 -114.2775 348° North 146 168 3,200 -677 Descending Salt Lake Center

Login

Don't have an account? Register now (free) for customized features, flight alerts, and more!